Airfield :
LOGIN :

Register | Disclaimer

   EN    FR    IT 

 










Legend :    VFR   Marginal VFR   IFR   Intensive IFR   Very Intensive IFR
Visi :
Ceiling :
>= 8 km
>= 3000ft
5 to 8 km
1000 to 3000 ft
1500m to 5 km
500 to 1000 ft
800 to 1500m
200 to 500 ft
< 800m
< 200 ft
Symbols :   Thunderstorms  Fog  Heavy snow  Heavy precipitations  Wind > 20 kt
SIGMETs :     Misc.  Thunderstorms  Icing  Turbulence  Mountain Waves  Volcanic Ashes






- Airport Elevation : 598 ft
- IATA code : BQH


EGKB - Biggin Hill

CURRENT METAR :
  • 301350Z VRB03KT 8000 2000S BR BKN003 06/05 Q1026

EXPIRED METARs :
  • 301320Z 05003KT 010V120 4000 BR BKN002 06/06 Q1025
  • 301250Z 09004KT 070V140 1200 R21/P2000U BR BKN001 05/05 Q1025
  • 301220Z 09003KT 050V120 0600 R21/1000D FG VV/// 06/06 Q1025
  • 301150Z VRB02KT 0500 R21/0650D FG VV/// 05/05 Q1025
  • 301120Z VRB01KT 0500 R21/1300U FG VV/// 06/05 Q1025

TAF AMD TAF EGKB
Valid from the 30 at 12:00 until the 30 at 21:00 UTC


301157Z 3012/3021 11003KT 0700 FG BKN001
BECMG 3012/3015 6000 NSW BKN006
BECMG 3015/3018 9999 SCT008



MET'MAP, your aeronautical weather chart ! - Copyright ORBIFLY December 2007 - Disclaimer

ORBIFLY MET'MAP TEAM :

Programming & Development : Alexandra Zaïnal
Original concept : Baudouin d'Aumeries
Technical & hardware support : Manuel Goepfert
Assistance : Marc-Olivier Méhu




SOURCES & CREDITS :

   NOAA